sensor_id;sensor_type;location;lat;lon;timestamp;temperature;humidity
47813;DHT22;34221;45.296;9.516;2023-04-07T00:00:05;11.10;72.90
47813;DHT22;34221;45.296;9.516;2023-04-07T00:00:26;11.10;73.50
47813;DHT22;34221;45.296;9.516;2023-04-07T00:00:41;11.10;72.30
47813;DHT22;34221;45.296;9.516;2023-04-07T00:00:56;11.10;72.90
47813;DHT22;34221;45.296;9.516;2023-04-07T00:01:11;11.10;73.10
47813;DHT22;34221;45.296;9.516;2023-04-07T00:01:26;11.10;75.50
47813;DHT22;34221;45.296;9.516;2023-04-07T00:01:41;11.10;75.50
47813;DHT22;34221;45.296;9.516;2023-04-07T00:01:55;11.10;74.80
47813;DHT22;34221;45.296;9.516;2023-04-07T00:02:10;11.10;74.20
47813;DHT22;34221;45.296;9.516;2023-04-07T00:02:25;11.10;74.60
47813;DHT22;34221;45.296;9.516;2023-04-07T00:02:42;11.10;73.80
47813;DHT22;34221;45.296;9.516;2023-04-07T00:02:57;11.10;73.20
47813;DHT22;34221;45.296;9.516;2023-04-07T00:03:12;11.10;72.90
47813;DHT22;34221;45.296;9.516;2023-04-07T00:03:27;11.10;74.10
47813;DHT22;34221;45.296;9.516;2023-04-07T00:03:42;11.10;73.60
47813;DHT22;34221;45.296;9.516;2023-04-07T00:03:57;11.10;74.10
47813;DHT22;34221;45.296;9.516;2023-04-07T00:04:12;11.10;74.90
47813;DHT22;34221;45.296;9.516;2023-04-07T00:04:27;11.00;75.00
47813;DHT22;34221;45.296;9.516;2023-04-07T00:04:42;11.00;72.90
47813;DHT22;34221;45.296;9.516;2023-04-07T00:04:57;11.00;75.10
47813;DHT22;34221;45.296;9.516;2023-04-07T00:05:12;11.00;76.10
47813;DHT22;34221;45.296;9.516;2023-04-07T00:05:27;11.00;71.30
47813;DHT22;34221;45.296;9.516;2023-04-07T00:05:42;11.00;68.30
47813;DHT22;34221;45.296;9.516;2023-04-07T00:05:57;11.00;70.30
47813;DHT22;34221;45.296;9.516;2023-04-07T00:06:12;11.00;70.60
47813;DHT22;34221;45.296;9.516;2023-04-07T00:06:27;11.00;70.10
47813;DHT22;34221;45.296;9.516;2023-04-07T00:06:42;11.00;71.50
47813;DHT22;34221;45.296;9.516;2023-04-07T00:06:57;11.00;71.60
47813;DHT22;34221;45.296;9.516;2023-04-07T00:07:12;11.00;71.70
47813;DHT22;34221;45.296;9.516;2023-04-07T00:07:27;11.00;72.80
47813;DHT22;34221;45.296;9.516;2023-04-07T00:07:42;11.00;72.40
47813;DHT22;34221;45.296;9.516;2023-04-07T00:07:56;11.00;73.70
47813;DHT22;34221;45.296;9.516;2023-04-07T00:08:11;11.00;71.30
47813;DHT22;34221;45.296;9.516;2023-04-07T00:08:26;11.00;67.90
47813;DHT22;34221;45.296;9.516;2023-04-07T00:08:41;11.00;70.50
47813;DHT22;34221;45.296;9.516;2023-04-07T00:08:56;11.00;70.80
47813;DHT22;34221;45.296;9.516;2023-04-07T00:09:11;11.00;66.90
47813;DHT22;34221;45.296;9.516;2023-04-07T00:09:26;10.90;68.30
47813;DHT22;34221;45.296;9.516;2023-04-07T00:09:41;10.90;67.90
47813;DHT22;34221;45.296;9.516;2023-04-07T00:09:56;10.90;67.10
47813;DHT22;34221;45.296;9.516;2023-04-07T00:10:11;10.90;69.10
47813;DHT22;34221;45.296;9.516;2023-04-07T00:10:26;11.00;70.50
47813;DHT22;34221;45.296;9.516;2023-04-07T00:10:41;10.90;70.60
47813;DHT22;34221;45.296;9.516;2023-04-07T00:10:56;10.90;72.80
47813;DHT22;34221;45.296;9.516;2023-04-07T00:11:12;10.90;71.90
47813;DHT22;34221;45.296;9.516;2023-04-07T00:11:27;10.90;70.80
47813;DHT22;34221;45.296;9.516;2023-04-07T00:11:42;10.90;70.10
47813;DHT22;34221;45.296;9.516;2023-04-07T00:11:57;10.90;69.80
47813;DHT22;34221;45.296;9.516;2023-04-07T00:12:11;10.90;69.90
47813;DHT22;34221;45.296;9.516;2023-04-07T00:12:26;10.90;70.10
47813;DHT22;34221;45.296;9.516;2023-04-07T00:12:41;10.90;69.60
47813;DHT22;34221;45.296;9.516;2023-04-07T00:12:56;10.90;70.50
47813;DHT22;34221;45.296;9.516;2023-04-07T00:13:11;10.90;70.00
47813;DHT22;34221;45.296;9.516;2023-04-07T00:13:26;10.90;67.50
47813;DHT22;34221;45.296;9.516;2023-04-07T00:13:41;10.90;65.90
47813;DHT22;34221;45.296;9.516;2023-04-07T00:13:56;10.90;67.70
47813;DHT22;34221;45.296;9.516;2023-04-07T00:14:11;10.90;67.30
47813;DHT22;34221;45.296;9.516;2023-04-07T00:14:25;10.90;70.70
47813;DHT22;34221;45.296;9.516;2023-04-07T00:14:41;10.90;71.20
47813;DHT22;34221;45.296;9.516;2023-04-07T00:14:56;10.90;71.70
47813;DHT22;34221;45.296;9.516;2023-04-07T00:15:11;10.90;69.80
47813;DHT22;34221;45.296;9.516;2023-04-07T00:15:26;10.90;65.70
47813;DHT22;34221;45.296;9.516;2023-04-07T00:15:41;10.90;65.70
47813;DHT22;34221;45.296;9.516;2023-04-07T00:15:56;10.90;65.30
47813;DHT22;34221;45.296;9.516;2023-04-07T00:16:10;10.90;69.00
47813;DHT22;34221;45.296;9.516;2023-04-07T00:16:25;10.90;70.20
47813;DHT22;34221;45.296;9.516;2023-04-07T00:16:40;10.90;70.30
47813;DHT22;34221;45.296;9.516;2023-04-07T00:16:58;10.90;69.40
47813;DHT22;34221;45.296;9.516;2023-04-07T00:17:13;10.90;68.60
47813;DHT22;34221;45.296;9.516;2023-04-07T00:17:28;10.90;72.30
47813;DHT22;34221;45.296;9.516;2023-04-07T00:17:43;10.90;68.70
47813;DHT22;34221;45.296;9.516;2023-04-07T00:17:58;10.90;70.30
47813;DHT22;34221;45.296;9.516;2023-04-07T00:18:13;10.80;71.30
47813;DHT22;34221;45.296;9.516;2023-04-07T00:18:28;10.80;72.40
47813;DHT22;34221;45.296;9.516;2023-04-07T00:18:43;10.90;69.60
47813;DHT22;34221;45.296;9.516;2023-04-07T00:18:58;10.90;70.60
47813;DHT22;34221;45.296;9.516;2023-04-07T00:19:13;10.80;69.00
47813;DHT22;34221;45.296;9.516;2023-04-07T00:19:28;10.80;68.50
47813;DHT22;34221;45.296;9.516;2023-04-07T00:19:43;10.80;70.50
47813;DHT22;34221;45.296;9.516;2023-04-07T00:19:57;10.80;69.60
47813;DHT22;34221;45.296;9.516;2023-04-07T00:20:12;10.80;64.10
47813;DHT22;34221;45.296;9.516;2023-04-07T00:20:27;10.80;65.90
47813;DHT22;34221;45.296;9.516;2023-04-07T00:20:42;10.80;66.70
47813;DHT22;34221;45.296;9.516;2023-04-07T00:20:57;10.80;69.00
47813;DHT22;34221;45.296;9.516;2023-04-07T00:21:12;10.80;71.90
47813;DHT22;34221;45.296;9.516;2023-04-07T00:21:27;10.80;68.30
47813;DHT22;34221;45.296;9.516;2023-04-07T00:21:42;10.80;64.80
47813;DHT22;34221;45.296;9.516;2023-04-07T00:21:56;10.80;67.10
47813;DHT22;34221;45.296;9.516;2023-04-07T00:22:11;10.80;65.70
47813;DHT22;34221;45.296;9.516;2023-04-07T00:22:26;10.80;68.40
47813;DHT22;34221;45.296;9.516;2023-04-07T00:22:42;10.80;66.80
47813;DHT22;34221;45.296;9.516;2023-04-07T00:22:56;10.80;68.80
47813;DHT22;34221;45.296;9.516;2023-04-07T00:23:11;10.80;65.20
47813;DHT22;34221;45.296;9.516;2023-04-07T00:23:26;10.80;66.50
47813;DHT22;34221;45.296;9.516;2023-04-07T00:23:41;10.70;64.80
47813;DHT22;34221;45.296;9.516;2023-04-07T00:23:56;10.70;68.10
47813;DHT22;34221;45.296;9.516;2023-04-07T00:24:11;10.80;68.80
47813;DHT22;34221;45.296;9.516;2023-04-07T00:24:26;10.70;69.20
47813;DHT22;34221;45.296;9.516;2023-04-07T00:24:41;10.80;71.50
47813;DHT22;34221;45.296;9.516;2023-04-07T00:24:56;10.80;69.80
47813;DHT22;34221;45.296;9.516;2023-04-07T00:25:11;10.70;70.10
47813;DHT22;34221;45.296;9.516;2023-04-07T00:25:26;10.70;67.20
47813;DHT22;34221;45.296;9.516;2023-04-07T00:25:40;10.70;68.50
47813;DHT22;34221;45.296;9.516;2023-04-07T00:25:55;10.70;68.00
47813;DHT22;34221;45.296;9.516;2023-04-07T00:26:10;10.70;65.10
47813;DHT22;34221;45.296;9.516;2023-04-07T00:26:27;10.70;64.40
47813;DHT22;34221;45.296;9.516;2023-04-07T00:26:45;10.70;64.00
47813;DHT22;34221;45.296;9.516;2023-04-07T00:27:00;10.70;65.40
47813;DHT22;34221;45.296;9.516;2023-04-07T00:27:15;10.70;64.40
47813;DHT22;34221;45.296;9.516;2023-04-07T00:27:30;10.70;63.90
47813;DHT22;34221;45.296;9.516;2023-04-07T00:27:45;10.70;64.10
47813;DHT22;34221;45.296;9.516;2023-04-07T00:28:00;10.70;65.40
47813;DHT22;34221;45.296;9.516;2023-04-07T00:28:15;10.70;65.50
47813;DHT22;34221;45.296;9.516;2023-04-07T00:28:30;10.60;64.40
47813;DHT22;34221;45.296;9.516;2023-04-07T00:28:45;10.60;62.30
47813;DHT22;34221;45.296;9.516;2023-04-07T00:29:00;10.60;60.90
47813;DHT22;34221;45.296;9.516;2023-04-07T00:29:15;10.60;63.00
47813;DHT22;34221;45.296;9.516;2023-04-07T00:29:30;10.60;66.20
47813;DHT22;34221;45.296;9.516;2023-04-07T00:29:45;10.60;67.70
47813;DHT22;34221;45.296;9.516;2023-04-07T00:30:01;10.60;67.60
47813;DHT22;34221;45.296;9.516;2023-04-07T00:30:16;10.70;68.40
47813;DHT22;34221;45.296;9.516;2023-04-07T00:30:31;10.60;70.10
47813;DHT22;34221;45.296;9.516;2023-04-07T00:30:46;10.60;66.20
47813;DHT22;34221;45.296;9.516;2023-04-07T00:31:01;10.60;66.40
47813;DHT22;34221;45.296;9.516;2023-04-07T00:31:16;10.60;66.80
47813;DHT22;34221;45.296;9.516;2023-04-07T00:31:31;10.60;67.70
47813;DHT22;34221;45.296;9.516;2023-04-07T00:31:46;10.60;67.50
47813;DHT22;34221;45.296;9.516;2023-04-07T00:32:01;10.60;69.00
47813;DHT22;34221;45.296;9.516;2023-04-07T00:32:16;10.60;67.20
47813;DHT22;34221;45.296;9.516;2023-04-07T00:32:31;10.60;65.90
47813;DHT22;34221;45.296;9.516;2023-04-07T00:32:47;10.60;69.00
47813;DHT22;34221;45.296;9.516;2023-04-07T00:33:02;10.60;68.40
47813;DHT22;34221;45.296;9.516;2023-04-07T00:33:17;10.60;68.30
47813;DHT22;34221;45.296;9.516;2023-04-07T00:33:32;10.60;67.60
47813;DHT22;34221;45.296;9.516;2023-04-07T00:33:47;10.60;65.90
47813;DHT22;34221;45.296;9.516;2023-04-07T00:34:03;10.60;62.90
47813;DHT22;34221;45.296;9.516;2023-04-07T00:34:18;10.60;61.90
47813;DHT22;34221;45.296;9.516;2023-04-07T00:34:33;10.50;61.60
47813;DHT22;34221;45.296;9.516;2023-04-07T00:34:47;10.50;61.80
47813;DHT22;34221;45.296;9.516;2023-04-07T00:35:02;10.50;61.60
47813;DHT22;34221;45.296;9.516;2023-04-07T00:35:18;10.50;61.20
47813;DHT22;34221;45.296;9.516;2023-04-07T00:35:33;10.50;60.70
47813;DHT22;34221;45.296;9.516;2023-04-07T00:35:48;10.40;63.60
47813;DHT22;34221;45.296;9.516;2023-04-07T00:36:03;10.40;65.10
47813;DHT22;34221;45.296;9.516;2023-04-07T00:36:18;10.40;65.80
47813;DHT22;34221;45.296;9.516;2023-04-07T00:36:33;10.40;66.10
47813;DHT22;34221;45.296;9.516;2023-04-07T00:36:48;10.40;67.70
47813;DHT22;34221;45.296;9.516;2023-04-07T00:37:05;10.50;67.80
47813;DHT22;34221;45.296;9.516;2023-04-07T00:37:20;10.40;68.70
47813;DHT22;34221;45.296;9.516;2023-04-07T00:37:35;10.40;68.10
47813;DHT22;34221;45.296;9.516;2023-04-07T00:37:50;10.40;64.00
47813;DHT22;34221;45.296;9.516;2023-04-07T00:38:06;10.40;65.80
47813;DHT22;34221;45.296;9.516;2023-04-07T00:38:21;10.40;69.00
47813;DHT22;34221;45.296;9.516;2023-04-07T00:38:36;10.40;70.30
47813;DHT22;34221;45.296;9.516;2023-04-07T00:38:51;10.40;69.90
47813;DHT22;34221;45.296;9.516;2023-04-07T00:39:05;10.40;67.20
47813;DHT22;34221;45.296;9.516;2023-04-07T00:39:20;10.40;64.80
47813;DHT22;34221;45.296;9.516;2023-04-07T00:39:35;10.40;63.60
47813;DHT22;34221;45.296;9.516;2023-04-07T00:39:51;10.40;65.10
47813;DHT22;34221;45.296;9.516;2023-04-07T00:40:06;10.40;68.30
47813;DHT22;34221;45.296;9.516;2023-04-07T00:40:22;10.40;71.00
47813;DHT22;34221;45.296;9.516;2023-04-07T00:40:37;10.40;70.70
47813;DHT22;34221;45.296;9.516;2023-04-07T00:40:58;10.40;69.80
47813;DHT22;34221;45.296;9.516;2023-04-07T00:41:13;10.40;67.70
47813;DHT22;34221;45.296;9.516;2023-04-07T00:41:29;10.40;68.00
47813;DHT22;34221;45.296;9.516;2023-04-07T00:41:44;10.40;67.60
47813;DHT22;34221;45.296;9.516;2023-04-07T00:42:00;10.40;65.50
47813;DHT22;34221;45.296;9.516;2023-04-07T00:42:18;10.40;66.20
47813;DHT22;34221;45.296;9.516;2023-04-07T00:42:34;10.40;68.00
47813;DHT22;34221;45.296;9.516;2023-04-07T00:42:49;10.40;66.60
47813;DHT22;34221;45.296;9.516;2023-04-07T00:43:04;10.40;66.40
47813;DHT22;34221;45.296;9.516;2023-04-07T00:43:19;10.40;68.60
47813;DHT22;34221;45.296;9.516;2023-04-07T00:43:34;10.40;70.00
47813;DHT22;34221;45.296;9.516;2023-04-07T00:43:50;10.40;67.60
47813;DHT22;34221;45.296;9.516;2023-04-07T00:44:05;10.40;65.80
47813;DHT22;34221;45.296;9.516;2023-04-07T00:44:20;10.40;67.60
47813;DHT22;34221;45.296;9.516;2023-04-07T00:44:35;10.40;64.70
47813;DHT22;34221;45.296;9.516;2023-04-07T00:44:50;10.40;63.30
47813;DHT22;34221;45.296;9.516;2023-04-07T00:45:05;10.30;64.50
47813;DHT22;34221;45.296;9.516;2023-04-07T00:45:21;10.40;62.80
47813;DHT22;34221;45.296;9.516;2023-04-07T00:45:36;10.40;63.10
47813;DHT22;34221;45.296;9.516;2023-04-07T00:45:52;10.30;67.00
47813;DHT22;34221;45.296;9.516;2023-04-07T00:46:07;10.30;67.00
47813;DHT22;34221;45.296;9.516;2023-04-07T00:46:22;10.30;67.10
47813;DHT22;34221;45.296;9.516;2023-04-07T00:46:38;10.30;68.90
47813;DHT22;34221;45.296;9.516;2023-04-07T00:46:53;10.30;67.20
47813;DHT22;34221;45.296;9.516;2023-04-07T00:47:09;10.30;64.50
47813;DHT22;34221;45.296;9.516;2023-04-07T00:47:24;10.30;62.90
47813;DHT22;34221;45.296;9.516;2023-04-07T00:47:39;10.30;63.00
47813;DHT22;34221;45.296;9.516;2023-04-07T00:47:56;10.30;62.90
47813;DHT22;34221;45.296;9.516;2023-04-07T00:48:12;10.30;64.10
47813;DHT22;34221;45.296;9.516;2023-04-07T00:48:27;10.30;66.10
47813;DHT22;34221;45.296;9.516;2023-04-07T00:48:42;10.30;63.60
47813;DHT22;34221;45.296;9.516;2023-04-07T00:48:57;10.30;64.00
47813;DHT22;34221;45.296;9.516;2023-04-07T00:49:12;10.20;62.00
47813;DHT22;34221;45.296;9.516;2023-04-07T00:49:27;10.20;61.90
47813;DHT22;34221;45.296;9.516;2023-04-07T00:49:42;10.20;63.00
47813;DHT22;34221;45.296;9.516;2023-04-07T00:49:57;10.20;64.40
47813;DHT22;34221;45.296;9.516;2023-04-07T00:50:12;10.20;65.00
47813;DHT22;34221;45.296;9.516;2023-04-07T00:50:27;10.30;66.40
47813;DHT22;34221;45.296;9.516;2023-04-07T00:50:44;10.20;63.50
47813;DHT22;34221;45.296;9.516;2023-04-07T00:50:59;10.20;61.80
47813;DHT22;34221;45.296;9.516;2023-04-07T00:51:14;10.20;60.70
47813;DHT22;34221;45.296;9.516;2023-04-07T00:51:29;10.20;62.40
47813;DHT22;34221;45.296;9.516;2023-04-07T00:51:45;10.20;61.20
47813;DHT22;34221;45.296;9.516;2023-04-07T00:52:00;10.10;61.40
47813;DHT22;34221;45.296;9.516;2023-04-07T00:52:15;10.20;61.30
47813;DHT22;34221;45.296;9.516;2023-04-07T00:52:34;10.20;63.40
47813;DHT22;34221;45.296;9.516;2023-04-07T00:52:50;10.10;61.80
47813;DHT22;34221;45.296;9.516;2023-04-07T00:53:05;10.10;62.50
47813;DHT22;34221;45.296;9.516;2023-04-07T00:53:20;10.10;63.40
47813;DHT22;34221;45.296;9.516;2023-04-07T00:53:35;10.10;63.60
47813;DHT22;34221;45.296;9.516;2023-04-07T00:53:50;10.10;63.60
47813;DHT22;34221;45.296;9.516;2023-04-07T00:54:05;10.10;62.90
47813;DHT22;34221;45.296;9.516;2023-04-07T00:54:22;10.10;62.50
47813;DHT22;34221;45.296;9.516;2023-04-07T00:54:38;10.10;62.40
47813;DHT22;34221;45.296;9.516;2023-04-07T00:54:56;10.10;60.70
47813;DHT22;34221;45.296;9.516;2023-04-07T00:55:11;10.00;60.30
47813;DHT22;34221;45.296;9.516;2023-04-07T00:55:26;10.00;60.70
47813;DHT22;34221;45.296;9.516;2023-04-07T00:55:41;10.10;61.60
47813;DHT22;34221;45.296;9.516;2023-04-07T00:55:56;10.00;60.90
47813;DHT22;34221;45.296;9.516;2023-04-07T00:56:11;10.00;61.80
47813;DHT22;34221;45.296;9.516;2023-04-07T00:56:26;10.00;62.10
47813;DHT22;34221;45.296;9.516;2023-04-07T00:56:41;10.00;62.00
47813;DHT22;34221;45.296;9.516;2023-04-07T00:56:56;10.00;60.50
47813;DHT22;34221;45.296;9.516;2023-04-07T00:57:11;10.00;61.50
47813;DHT22;34221;45.296;9.516;2023-04-07T00:57:26;10.00;60.50
47813;DHT22;34221;45.296;9.516;2023-04-07T00:57:42;10.00;62.50
47813;DHT22;34221;45.296;9.516;2023-04-07T00:57:57;10.00;61.10
47813;DHT22;34221;45.296;9.516;2023-04-07T00:58:12;10.00;62.10
47813;DHT22;34221;45.296;9.516;2023-04-07T00:58:29;10.00;62.00
47813;DHT22;34221;45.296;9.516;2023-04-07T00:58:44;10.00;62.00
47813;DHT22;34221;45.296;9.516;2023-04-07T00:58:59;9.90;63.20
47813;DHT22;34221;45.296;9.516;2023-04-07T00:59:16;10.00;62.30
47813;DHT22;34221;45.296;9.516;2023-04-07T00:59:32;9.90;61.30
47813;DHT22;34221;45.296;9.516;2023-04-07T00:59:51;9.90;63.50
47813;DHT22;34221;45.296;9.516;2023-04-07T01:00:07;10.00;65.00
47813;DHT22;34221;45.296;9.516;2023-04-07T01:00:23;10.00;65.50
47813;DHT22;34221;45.296;9.516;2023-04-07T01:00:47;10.00;66.50
47813;DHT22;34221;45.296;9.516;2023-04-07T01:01:15;10.00;66.30
47813;DHT22;34221;45.296;9.516;2023-04-07T01:01:42;10.00;65.80
47813;DHT22;34221;45.296;9.516;2023-04-07T01:02:09;10.00;61.00
47813;DHT22;34221;45.296;9.516;2023-04-07T01:02:35;9.90;61.30
47813;DHT22;34221;45.296;9.516;2023-04-07T01:02:59;9.90;60.10
47813;DHT22;34221;45.296;9.516;2023-04-07T01:03:22;9.90;61.00
47813;DHT22;34221;45.296;9.516;2023-04-07T01:03:48;9.90;61.50
47813;DHT22;34221;45.296;9.516;2023-04-07T01:06:19;9.90;62.90
47813;DHT22;34221;45.296;9.516;2023-04-07T01:06:40;9.90;62.40
47813;DHT22;34221;45.296;9.516;2023-04-07T01:07:05;9.90;62.20
47813;DHT22;34221;45.296;9.516;2023-04-07T01:07:36;9.80;61.70
47813;DHT22;34221;45.296;9.516;2023-04-07T01:09:25;9.90;63.80
47813;DHT22;34221;45.296;9.516;2023-04-07T01:09:52;9.90;62.40
47813;DHT22;34221;45.296;9.516;2023-04-07T01:10:19;9.80;61.20
47813;DHT22;34221;45.296;9.516;2023-04-07T01:11:10;9.90;64.50
47813;DHT22;34221;45.296;9.516;2023-04-07T01:13:10;9.80;61.10
47813;DHT22;34221;45.296;9.516;2023-04-07T01:13:51;9.80;62.00
47813;DHT22;34221;45.296;9.516;2023-04-07T01:14:19;9.80;67.00
47813;DHT22;34221;45.296;9.516;2023-04-07T01:14:50;9.90;69.70
47813;DHT22;34221;45.296;9.516;2023-04-07T01:15:23;9.80;64.70
47813;DHT22;34221;45.296;9.516;2023-04-07T01:15:46;9.80;64.20
47813;DHT22;34221;45.296;9.516;2023-04-07T01:16:08;9.80;64.20
47813;DHT22;34221;45.296;9.516;2023-04-07T01:16:38;9.90;67.70
47813;DHT22;34221;45.296;9.516;2023-04-07T01:16:57;9.90;67.90
47813;DHT22;34221;45.296;9.516;2023-04-07T01:17:16;9.90;68.30
47813;DHT22;34221;45.296;9.516;2023-04-07T01:17:34;9.90;64.10
47813;DHT22;34221;45.296;9.516;2023-04-07T01:17:57;9.90;67.90
47813;DHT22;34221;45.296;9.516;2023-04-07T01:18:20;9.90;65.30
47813;DHT22;34221;45.296;9.516;2023-04-07T01:18:37;9.90;63.60
47813;DHT22;34221;45.296;9.516;2023-04-07T01:18:57;9.90;62.80
47813;DHT22;34221;45.296;9.516;2023-04-07T01:19:22;9.90;65.30
47813;DHT22;34221;45.296;9.516;2023-04-07T01:20:16;9.90;63.70
47813;DHT22;34221;45.296;9.516;2023-04-07T01:20:39;9.90;62.30
47813;DHT22;34221;45.296;9.516;2023-04-07T01:21:03;9.90;63.40
47813;DHT22;34221;45.296;9.516;2023-04-07T01:21:22;9.80;60.90
47813;DHT22;34221;45.296;9.516;2023-04-07T01:21:46;9.80;63.40
47813;DHT22;34221;45.296;9.516;2023-04-07T01:22:09;9.80;67.50
47813;DHT22;34221;45.296;9.516;2023-04-07T01:22:52;9.90;69.00
47813;DHT22;34221;45.296;9.516;2023-04-07T01:23:20;9.90;66.20
47813;DHT22;34221;45.296;9.516;2023-04-07T01:23:46;9.80;64.50
47813;DHT22;34221;45.296;9.516;2023-04-07T01:24:15;9.90;65.30
47813;DHT22;34221;45.296;9.516;2023-04-07T01:25:17;9.90;65.80
47813;DHT22;34221;45.296;9.516;2023-04-07T01:26:36;9.90;69.60
47813;DHT22;34221;45.296;9.516;2023-04-07T01:26:58;9.90;69.50
47813;DHT22;34221;45.296;9.516;2023-04-07T01:29:33;9.90;66.40
47813;DHT22;34221;45.296;9.516;2023-04-07T01:29:51;9.90;62.50
47813;DHT22;34221;45.296;9.516;2023-04-07T01:30:11;9.90;60.70
47813;DHT22;34221;45.296;9.516;2023-04-07T01:30:32;9.90;61.60
47813;DHT22;34221;45.296;9.516;2023-04-07T01:30:49;9.90;60.10
47813;DHT22;34221;45.296;9.516;2023-04-07T01:31:08;9.80;59.10
47813;DHT22;34221;45.296;9.516;2023-04-07T01:31:25;9.80;62.00
47813;DHT22;34221;45.296;9.516;2023-04-07T01:31:41;9.80;63.80
47813;DHT22;34221;45.296;9.516;2023-04-07T01:31:59;9.80;61.50
47813;DHT22;34221;45.296;9.516;2023-04-07T01:32:17;9.80;63.30
47813;DHT22;34221;45.296;9.516;2023-04-07T01:32:35;9.80;62.80
47813;DHT22;34221;45.296;9.516;2023-04-07T01:32:52;9.80;61.90
47813;DHT22;34221;45.296;9.516;2023-04-07T01:33:10;9.80;62.30
47813;DHT22;34221;45.296;9.516;2023-04-07T01:33:29;9.80;63.00
47813;DHT22;34221;45.296;9.516;2023-04-07T01:33:47;9.80;62.90
47813;DHT22;34221;45.296;9.516;2023-04-07T01:34:03;9.80;64.60
47813;DHT22;34221;45.296;9.516;2023-04-07T01:34:20;9.80;67.70
47813;DHT22;34221;45.296;9.516;2023-04-07T01:34:36;9.80;62.60
47813;DHT22;34221;45.296;9.516;2023-04-07T01:34:53;9.80;61.40
47813;DHT22;34221;45.296;9.516;2023-04-07T01:35:12;9.80;64.10
47813;DHT22;34221;45.296;9.516;2023-04-07T01:35:29;9.80;61.80
47813;DHT22;34221;45.296;9.516;2023-04-07T01:35:47;9.80;60.20
47813;DHT22;34221;45.296;9.516;2023-04-07T01:36:04;9.80;61.10
47813;DHT22;34221;45.296;9.516;2023-04-07T01:36:21;9.80;62.30
47813;DHT22;34221;45.296;9.516;2023-04-07T01:36:36;9.80;63.00
47813;DHT22;34221;45.296;9.516;2023-04-07T01:36:53;9.80;61.50
47813;DHT22;34221;45.296;9.516;2023-04-07T01:37:09;9.70;60.60
47813;DHT22;34221;45.296;9.516;2023-04-07T01:37:26;9.70;61.50
47813;DHT22;34221;45.296;9.516;2023-04-07T01:37:42;9.70;62.50
47813;DHT22;34221;45.296;9.516;2023-04-07T01:38:01;9.70;62.20
47813;DHT22;34221;45.296;9.516;2023-04-07T01:38:17;9.70;62.00
47813;DHT22;34221;45.296;9.516;2023-04-07T01:38:32;9.80;61.90
47813;DHT22;34221;45.296;9.516;2023-04-07T01:38:49;9.70;61.50
47813;DHT22;34221;45.296;9.516;2023-04-07T01:39:05;9.70;60.80
47813;DHT22;34221;45.296;9.516;2023-04-07T01:39:21;9.70;62.00
47813;DHT22;34221;45.296;9.516;2023-04-07T01:39:37;9.70;61.60
47813;DHT22;34221;45.296;9.516;2023-04-07T01:39:53;9.70;66.20
47813;DHT22;34221;45.296;9.516;2023-04-07T01:40:09;9.70;63.80
47813;DHT22;34221;45.296;9.516;2023-04-07T01:40:24;9.70;61.50
47813;DHT22;34221;45.296;9.516;2023-04-07T01:40:40;9.70;62.20
47813;DHT22;34221;45.296;9.516;2023-04-07T01:40:56;9.70;61.60
47813;DHT22;34221;45.296;9.516;2023-04-07T01:41:14;9.70;64.10
47813;DHT22;34221;45.296;9.516;2023-04-07T01:41:30;9.70;62.90
47813;DHT22;34221;45.296;9.516;2023-04-07T01:41:46;9.70;63.10
47813;DHT22;34221;45.296;9.516;2023-04-07T01:42:03;9.70;62.90
47813;DHT22;34221;45.296;9.516;2023-04-07T01:42:20;9.70;62.00
47813;DHT22;34221;45.296;9.516;2023-04-07T01:42:35;9.70;61.20
47813;DHT22;34221;45.296;9.516;2023-04-07T01:42:52;9.70;61.80
47813;DHT22;34221;45.296;9.516;2023-04-07T01:43:08;9.70;60.60
47813;DHT22;34221;45.296;9.516;2023-04-07T01:43:24;9.70;61.00
47813;DHT22;34221;45.296;9.516;2023-04-07T01:43:42;9.70;64.10
47813;DHT22;34221;45.296;9.516;2023-04-07T01:43:58;9.70;61.80
47813;DHT22;34221;45.296;9.516;2023-04-07T01:44:15;9.70;61.40
47813;DHT22;34221;45.296;9.516;2023-04-07T01:44:31;9.60;61.50
47813;DHT22;34221;45.296;9.516;2023-04-07T01:44:47;9.70;61.90
47813;DHT22;34221;45.296;9.516;2023-04-07T01:45:03;9.70;62.50
47813;DHT22;34221;45.296;9.516;2023-04-07T01:45:20;9.70;64.70
47813;DHT22;34221;45.296;9.516;2023-04-07T01:45:36;9.70;64.30
47813;DHT22;34221;45.296;9.516;2023-04-07T01:45:54;9.70;62.60
47813;DHT22;34221;45.296;9.516;2023-04-07T01:46:10;9.70;61.50
47813;DHT22;34221;45.296;9.516;2023-04-07T01:46:25;9.70;61.00
47813;DHT22;34221;45.296;9.516;2023-04-07T01:46:40;9.70;61.40
47813;DHT22;34221;45.296;9.516;2023-04-07T01:46:56;9.70;62.70
47813;DHT22;34221;45.296;9.516;2023-04-07T01:47:11;9.70;65.90
47813;DHT22;34221;45.296;9.516;2023-04-07T01:47:28;9.70;65.30
47813;DHT22;34221;45.296;9.516;2023-04-07T01:47:44;9.70;62.10
47813;DHT22;34221;45.296;9.516;2023-04-07T01:48:00;9.70;61.40
47813;DHT22;34221;45.296;9.516;2023-04-07T01:48:15;9.70;60.50
47813;DHT22;34221;45.296;9.516;2023-04-07T01:48:32;9.70;60.30
47813;DHT22;34221;45.296;9.516;2023-04-07T01:48:48;9.70;61.50
47813;DHT22;34221;45.296;9.516;2023-04-07T01:49:05;9.70;61.30
47813;DHT22;34221;45.296;9.516;2023-04-07T01:49:21;9.60;61.40
47813;DHT22;34221;45.296;9.516;2023-04-07T01:49:39;9.70;64.10
47813;DHT22;34221;45.296;9.516;2023-04-07T01:49:57;9.70;64.20
47813;DHT22;34221;45.296;9.516;2023-04-07T01:50:12;9.60;63.20
47813;DHT22;34221;45.296;9.516;2023-04-07T01:50:28;9.70;62.50
47813;DHT22;34221;45.296;9.516;2023-04-07T01:50:44;9.60;62.10
47813;DHT22;34221;45.296;9.516;2023-04-07T01:51:00;9.70;63.60
47813;DHT22;34221;45.296;9.516;2023-04-07T01:51:19;9.60;64.10
47813;DHT22;34221;45.296;9.516;2023-04-07T01:51:35;9.70;63.10
47813;DHT22;34221;45.296;9.516;2023-04-07T01:51:51;9.70;61.60
47813;DHT22;34221;45.296;9.516;2023-04-07T01:52:07;9.70;61.80
47813;DHT22;34221;45.296;9.516;2023-04-07T01:52:22;9.60;61.40
47813;DHT22;34221;45.296;9.516;2023-04-07T01:52:38;9.60;61.00
47813;DHT22;34221;45.296;9.516;2023-04-07T01:52:53;9.60;61.50
47813;DHT22;34221;45.296;9.516;2023-04-07T01:53:10;9.60;62.70
47813;DHT22;34221;45.296;9.516;2023-04-07T01:53:26;9.60;62.60
47813;DHT22;34221;45.296;9.516;2023-04-07T01:53:41;9.60;64.20
47813;DHT22;34221;45.296;9.516;2023-04-07T01:53:58;9.60;63.30
47813;DHT22;34221;45.296;9.516;2023-04-07T01:54:13;9.60;62.90
47813;DHT22;34221;45.296;9.516;2023-04-07T01:54:29;9.60;62.30
47813;DHT22;34221;45.296;9.516;2023-04-07T01:54:45;9.60;61.50
47813;DHT22;34221;45.296;9.516;2023-04-07T01:55:00;9.60;62.10
47813;DHT22;34221;45.296;9.516;2023-04-07T01:55:17;9.60;62.50
47813;DHT22;34221;45.296;9.516;2023-04-07T01:55:43;9.60;64.50
47813;DHT22;34221;45.296;9.516;2023-04-07T01:55:58;9.60;62.70
47813;DHT22;34221;45.296;9.516;2023-04-07T01:56:13;9.60;63.50
47813;DHT22;34221;45.296;9.516;2023-04-07T01:56:29;9.70;65.30
47813;DHT22;34221;45.296;9.516;2023-04-07T01:56:46;9.70;63.00